Time;durP1;ratioP1;P1;durP2;ratioP2;P2;SDS_P1;SDS_P2;PMS_P1;PMS_P2;Temp;Humidity;BMP_temperature;BMP_pressure;BME280_temperature;BME280_humidity;BME280_pressure;Samples;Min_cycle;Max_cycle;Signal;HPM_P1;HPM_P2
2023/08/09 00:02:03;;;;;;;3.00;2.70;;;17.60;99.90;;;;;;5016583;28;20378;-70
2023/08/09 00:04:28;;;;;;;3.17;2.87;;;17.60;99.90;;;;;;4999199;28;20226;-71
2023/08/09 00:06:54;;;;;;;3.67;2.73;;;17.60;99.90;;;;;;5017794;28;20914;-72
2023/08/09 00:09:22;;;;;;;2.83;2.53;;;17.60;99.90;;;;;;5002711;28;20624;-72
2023/08/09 00:11:48;;;;;;;3.20;2.90;;;17.60;99.90;;;;;;4998666;28;20252;-72
2023/08/09 00:14:13;;;;;;;9.57;3.00;;;17.50;99.90;;;;;;5001059;28;20928;-73
2023/08/09 00:16:39;;;;;;;3.30;2.97;;;17.50;99.90;;;;;;5002081;28;20224;-73
2023/08/09 00:19:06;;;;;;;4.73;3.60;;;17.50;99.90;;;;;;4996758;28;20225;-72
2023/08/09 00:21:32;;;;;;;3.13;2.83;;;17.50;99.90;;;;;;5001345;28;20231;-73
2023/08/09 00:23:58;;;;;;;3.13;2.67;;;17.50;99.90;;;;;;5004399;28;20463;-72
2023/08/09 00:26:25;;;;;;;2.90;2.60;;;17.50;99.90;;;;;;4987369;28;20305;-72
2023/08/09 00:28:53;;;;;;;6.30;2.87;;;17.50;99.90;;;;;;5022104;28;20595;-71
2023/08/09 00:31:18;;;;;;;2.60;2.40;;;17.50;99.90;;;;;;5005031;28;20569;-71
2023/08/09 00:33:45;;;;;;;3.40;2.97;;;17.50;99.90;;;;;;5018235;28;20451;-71
2023/08/09 00:36:11;;;;;;;2.80;2.50;;;17.50;99.90;;;;;;5004856;28;20253;-71
2023/08/09 00:38:36;;;;;;;3.60;3.07;;;17.50;99.90;;;;;;5004943;28;20463;-72
2023/08/09 00:41:03;;;;;;;3.53;2.43;;;17.50;99.90;;;;;;5035198;28;20283;-71
2023/08/09 00:43:29;;;;;;;2.57;2.40;;;17.40;99.90;;;;;;5021450;28;20228;-71
2023/08/09 00:45:55;;;;;;;2.60;2.13;;;17.50;99.90;;;;;;5004331;28;20465;-72
2023/08/09 00:48:22;;;;;;;3.43;2.83;;;17.50;99.90;;;;;;5002603;28;20462;-73
2023/08/09 00:50:48;;;;;;;3.10;2.70;;;17.50;99.90;;;;;;5034142;28;20479;-72
2023/08/09 00:53:16;;;;;;;2.87;2.67;;;17.50;99.90;;;;;;5021835;28;20471;-73
2023/08/09 00:55:42;;;;;;;3.27;2.97;;;17.50;99.90;;;;;;5005979;28;20239;-71
2023/08/09 00:58:08;;;;;;;2.80;2.60;;;17.40;99.90;;;;;;5017827;28;20524;-72
2023/08/09 01:00:33;;;;;;;2.57;2.37;;;17.40;99.90;;;;;;5019667;28;20812;-73
2023/08/09 01:02:59;;;;;;;2.47;2.27;;;17.40;99.90;;;;;;5020444;28;20469;-72
2023/08/09 01:05:33;;;;;;;2.60;2.30;;;17.40;99.90;;;;;;5019820;28;20231;-71
2023/08/09 01:08:07;;;;;;;5.00;2.50;;;17.40;99.90;;;;;;5019896;28;20466;-72
2023/08/09 01:10:38;;;;;;;2.80;2.60;;;17.40;99.90;;;;;;5019992;28;20483;-72
2023/08/09 01:13:06;;;;;;;3.90;2.70;;;17.40;99.90;;;;;;5019399;28;21111;-71
2023/08/09 01:15:38;;;;;;;3.30;2.40;;;17.40;99.90;;;;;;5035704;28;20530;-72
2023/08/09 01:18:06;;;;;;;3.50;3.17;;;17.40;99.90;;;;;;5023950;28;20478;-72
2023/08/09 01:20:33;;;;;;;7.33;2.77;;;17.40;99.90;;;;;;5024034;28;20474;-72
2023/08/09 01:23:03;;;;;;;2.47;2.27;;;17.40;99.90;;;;;;5007137;28;20555;-70
2023/08/09 01:25:30;;;;;;;3.03;2.70;;;17.40;99.90;;;;;;5022826;28;20550;-72
2023/08/09 01:27:57;;;;;;;3.07;2.77;;;17.40;99.90;;;;;;5039432;28;20520;-72
2023/08/09 01:30:23;;;;;;;6.13;2.47;;;17.30;99.90;;;;;;5022215;28;20564;-71
2023/08/09 01:32:49;;;;;;;2.57;2.37;;;17.30;99.90;;;;;;5023655;28;20453;-72
2023/08/09 01:35:16;;;;;;;2.80;2.50;;;17.20;99.90;;;;;;5024523;28;20577;-71
2023/08/09 01:37:50;;;;;;;6.57;2.60;;;17.30;99.90;;;;;;5024705;28;20465;-72
2023/08/09 01:40:18;;;;;;;4.37;3.30;;;17.20;99.90;;;;;;5027602;28;20578;-71
2023/08/09 01:42:45;;;;;;;3.00;2.67;;;17.20;99.90;;;;;;5007852;28;20569;-72
2023/08/09 01:45:12;;;;;;;5.40;2.80;;;17.30;99.90;;;;;;5021449;28;21291;-71
2023/08/09 01:47:40;;;;;;;2.40;2.20;;;17.20;99.90;;;;;;5021162;28;20466;-71
2023/08/09 01:50:16;;;;;;;2.57;2.37;;;17.20;99.90;;;;;;5015554;28;21007;-71
2023/08/09 01:52:42;;;;;;;2.70;2.50;;;17.20;99.90;;;;;;5017911;28;20482;-70
2023/08/09 01:55:08;;;;;;;3.63;2.77;;;17.20;99.90;;;;;;5035075;28;20977;-72
2023/08/09 01:57:35;;;;;;;6.23;2.67;;;17.20;99.90;;;;;;5033881;28;20226;-72
2023/08/09 02:00:00;;;;;;;4.23;2.67;;;17.20;99.90;;;;;;5020190;28;20475;-72
2023/08/09 02:02:26;;;;;;;2.37;2.13;;;17.20;99.90;;;;;;5020251;28;20247;-70
2023/08/09 02:04:52;;;;;;;7.17;2.67;;;17.10;99.90;;;;;;5022117;28;20223;-72
2023/08/09 02:07:18;;;;;;;2.50;2.30;;;17.10;99.90;;;;;;5024769;28;20220;-71
2023/08/09 02:09:43;;;;;;;3.03;2.73;;;17.10;99.90;;;;;;5004811;28;21120;-71
2023/08/09 02:12:09;;;;;;;4.50;2.80;;;17.10;99.90;;;;;;5005060;28;20312;-72
2023/08/09 02:14:35;;;;;;;2.30;2.10;;;17.10;99.90;;;;;;5024562;28;20366;-71
2023/08/09 02:17:00;;;;;;;2.43;2.27;;;17.10;99.90;;;;;;5020989;28;20216;-71
2023/08/09 02:19:26;;;;;;;2.70;2.50;;;17.10;99.90;;;;;;5020500;28;20234;-71
2023/08/09 02:21:52;;;;;;;3.00;2.80;;;17.10;99.90;;;;;;5021988;28;20230;-72
2023/08/09 02:24:17;;;;;;;4.53;2.10;;;17.10;99.90;;;;;;5037617;28;20238;-72
2023/08/09 02:26:43;;;;;;;2.70;2.50;;;17.00;99.90;;;;;;5003709;28;20309;-72
2023/08/09 02:29:09;;;;;;;3.20;2.77;;;17.10;99.90;;;;;;5036278;28;20233;-70
2023/08/09 02:31:34;;;;;;;2.67;2.47;;;17.10;99.90;;;;;;5022829;28;20235;-72
2023/08/09 02:34:00;;;;;;;2.37;2.17;;;17.10;99.90;;;;;;5019662;28;20253;-71
2023/08/09 02:36:26;;;;;;;3.23;2.40;;;17.10;99.90;;;;;;5025005;28;20702;-70
2023/08/09 02:38:52;;;;;;;2.70;2.50;;;17.10;99.90;;;;;;5023821;28;20223;-72
2023/08/09 02:41:19;;;;;;;2.73;2.53;;;17.10;99.90;;;;;;5024657;28;20243;-71
2023/08/09 02:43:45;;;;;;;3.00;2.53;;;17.10;99.90;;;;;;5024458;28;20219;-72
2023/08/09 02:46:12;;;;;;;5.80;2.50;;;17.10;99.90;;;;;;5040037;28;20689;-71
2023/08/09 02:48:39;;;;;;;3.43;2.93;;;17.10;99.90;;;;;;5025383;28;20224;-71
2023/08/09 02:51:04;;;;;;;2.93;2.60;;;17.00;99.90;;;;;;5039532;28;20531;-71
2023/08/09 02:53:37;;;;;;;2.77;2.57;;;16.90;99.90;;;;;;5039544;28;21057;-73
2023/08/09 02:56:03;;;;;;;2.80;2.50;;;16.90;99.90;;;;;;5024273;28;20234;-72
2023/08/09 02:58:29;;;;;;;3.37;2.53;;;16.90;99.90;;;;;;5024759;28;20496;-71
2023/08/09 03:00:54;;;;;;;3.80;2.60;;;16.90;99.90;;;;;;5022466;28;20475;-71
2023/08/09 03:03:20;;;;;;;4.53;2.80;;;16.90;99.90;;;;;;5039668;28;20737;-71
2023/08/09 03:05:48;;;;;;;4.00;2.73;;;16.90;99.90;;;;;;5025232;28;20296;-70
2023/08/09 03:08:14;;;;;;;3.17;2.80;;;16.90;99.90;;;;;;5022707;28;20454;-72
2023/08/09 03:10:40;;;;;;;3.43;2.80;;;16.90;99.90;;;;;;5023124;28;21277;-70
2023/08/09 03:13:06;;;;;;;2.93;2.70;;;16.80;99.90;;;;;;5022980;28;20329;-71
2023/08/09 03:15:31;;;;;;;3.23;2.63;;;16.80;99.90;;;;;;5025376;28;20367;-70
2023/08/09 03:17:57;;;;;;;2.67;2.47;;;16.70;99.90;;;;;;5040117;28;20297;-73
2023/08/09 03:20:23;;;;;;;3.67;2.43;;;16.70;99.90;;;;;;5039602;28;20261;-72
2023/08/09 03:22:49;;;;;;;2.93;2.60;;;16.70;99.90;;;;;;5021657;28;20358;-72
2023/08/09 03:25:16;;;;;;;3.03;2.83;;;16.60;99.90;;;;;;5006763;28;20228;-70
2023/08/09 03:27:45;;;;;;;3.80;2.40;;;16.70;99.90;;;;;;5022247;28;20474;-72
2023/08/09 03:30:11;;;;;;;2.93;2.70;;;16.80;99.90;;;;;;5038150;28;20465;-70
2023/08/09 03:32:37;;;;;;;3.40;2.73;;;16.80;99.90;;;;;;5022077;28;20460;-72
2023/08/09 03:35:05;;;;;;;2.90;2.70;;;16.70;99.90;;;;;;5023301;28;20450;-72
2023/08/09 03:37:31;;;;;;;3.60;2.63;;;16.60;99.90;;;;;;5040583;28;20223;-71
2023/08/09 03:39:56;;;;;;;5.60;2.83;;;16.50;99.90;;;;;;5021745;28;21025;-72
2023/08/09 03:42:22;;;;;;;2.60;2.40;;;16.40;99.90;;;;;;5024403;28;20863;-71
2023/08/09 03:44:48;;;;;;;2.90;2.70;;;16.50;99.90;;;;;;5038649;28;20323;-72
2023/08/09 03:47:13;;;;;;;5.67;2.77;;;16.50;99.90;;;;;;5014569;28;20723;-71
2023/08/09 03:49:40;;;;;;;3.00;2.43;;;16.50;99.90;;;;;;5023391;28;20689;-71
2023/08/09 03:52:06;;;;;;;2.83;2.57;;;16.40;99.90;;;;;;5005617;28;20472;-72
2023/08/09 03:54:33;;;;;;;4.73;2.40;;;16.30;99.90;;;;;;5025888;28;20212;-72
2023/08/09 03:56:59;;;;;;;5.70;2.33;;;16.30;99.90;;;;;;5023652;28;20489;-72
2023/08/09 03:59:24;;;;;;;3.67;2.60;;;16.30;99.90;;;;;;5011305;28;20457;-73
2023/08/09 04:01:50;;;;;;;3.10;2.30;;;16.20;99.90;;;;;;5027008;28;20254;-69
2023/08/09 04:04:16;;;;;;;2.90;2.63;;;16.20;99.90;;;;;;5028379;28;20318;-72
2023/08/09 04:06:41;;;;;;;7.97;2.50;;;16.20;99.90;;;;;;5028221;28;20838;-72
2023/08/09 04:09:07;;;;;;;3.20;2.73;;;16.30;99.90;;;;;;5025710;28;20266;-71
2023/08/09 04:11:33;;;;;;;2.63;2.40;;;16.30;99.90;;;;;;5026163;28;20216;-72
2023/08/09 04:13:59;;;;;;;2.10;2.00;;;16.20;99.90;;;;;;5027752;28;20472;-72
2023/08/09 04:16:25;;;;;;;3.43;2.50;;;16.20;99.90;;;;;;5046201;28;20322;-72
2023/08/09 04:18:51;;;;;;;2.87;2.57;;;16.20;99.90;;;;;;5026615;28;20260;-70
2023/08/09 04:21:17;;;;;;;3.00;2.80;;;16.20;99.90;;;;;;5027074;28;20484;-71
2023/08/09 04:23:43;;;;;;;4.53;2.60;;;16.20;99.90;;;;;;5045577;28;20330;-72
2023/08/09 04:26:08;;;;;;;3.87;2.37;;;16.30;99.90;;;;;;5023544;28;20243;-72
2023/08/09 04:28:34;;;;;;;5.07;2.97;;;16.20;99.90;;;;;;5026766;28;20404;-71
2023/08/09 04:31:02;;;;;;;13.93;3.00;;;16.30;99.90;;;;;;5025025;28;20239;-71
2023/08/09 04:33:27;;;;;;;2.77;2.57;;;16.30;99.90;;;;;;5045547;28;20220;-72
2023/08/09 04:35:54;;;;;;;4.20;2.23;;;16.20;99.90;;;;;;5009983;28;20480;-71
2023/08/09 04:38:19;;;;;;;5.50;2.57;;;16.30;99.90;;;;;;5043010;28;20600;-70
2023/08/09 04:40:45;;;;;;;2.80;2.33;;;16.40;99.90;;;;;;5023594;28;20545;-72
2023/08/09 04:43:13;;;;;;;2.60;2.40;;;16.40;99.90;;;;;;5027234;28;20258;-70
2023/08/09 04:45:40;;;;;;;2.60;2.20;;;16.50;99.90;;;;;;5028738;28;20260;-71
2023/08/09 04:48:05;;;;;;;2.83;2.63;;;16.50;99.90;;;;;;5044208;28;21022;-72
2023/08/09 04:50:32;;;;;;;3.57;2.70;;;16.50;99.90;;;;;;5027642;28;20477;-71
2023/08/09 04:52:58;;;;;;;3.27;2.60;;;16.50;99.90;;;;;;5026726;28;20234;-72
2023/08/09 04:55:24;;;;;;;2.63;2.40;;;16.50;99.90;;;;;;5028059;28;20474;-70
2023/08/09 04:57:49;;;;;;;2.50;2.30;;;16.50;99.90;;;;;;5026646;28;20230;-73
2023/08/09 05:00:15;;;;;;;2.93;2.63;;;16.50;99.90;;;;;;5025602;28;20290;-71
2023/08/09 05:02:41;;;;;;;2.63;2.43;;;16.50;99.90;;;;;;5044327;28;20231;-71
2023/08/09 05:05:07;;;;;;;7.10;2.30;;;16.50;99.90;;;;;;5025700;28;20457;-72
2023/08/09 05:07:34;;;;;;;3.90;2.53;;;16.60;99.90;;;;;;5045745;28;20228;-72
2023/08/09 05:10:01;;;;;;;3.23;2.93;;;16.60;99.90;;;;;;5041072;28;21090;-72
2023/08/09 05:12:26;;;;;;;4.47;2.80;;;16.60;99.90;;;;;;5027359;28;20469;-72
2023/08/09 05:14:52;;;;;;;2.60;2.40;;;16.50;99.90;;;;;;5026463;28;20465;-71
2023/08/09 05:17:19;;;;;;;4.07;2.53;;;16.40;99.90;;;;;;5043936;28;20579;-71
2023/08/09 05:19:45;;;;;;;2.53;2.13;;;16.40;99.90;;;;;;5026526;28;20473;-72
2023/08/09 05:22:10;;;;;;;2.70;2.50;;;16.50;99.90;;;;;;5026128;28;20227;-72
2023/08/09 05:24:36;;;;;;;2.47;2.27;;;16.50;99.90;;;;;;5026726;28;20336;-71
2023/08/09 05:27:02;;;;;;;2.93;2.73;;;16.40;99.90;;;;;;5042190;28;20231;-71
2023/08/09 05:29:27;;;;;;;5.47;2.80;;;16.40;99.90;;;;;;5042350;28;20223;-71
2023/08/09 05:31:53;;;;;;;2.40;2.20;;;16.40;99.90;;;;;;5025525;28;20612;-71
2023/08/09 05:34:19;;;;;;;2.50;2.30;;;16.40;99.90;;;;;;5026491;28;20444;-72
2023/08/09 05:36:45;;;;;;;2.50;2.30;;;16.40;99.90;;;;;;5044969;28;20331;-71
2023/08/09 05:39:12;;;;;;;2.23;2.13;;;16.40;99.90;;;;;;5010296;28;21539;-71
2023/08/09 05:41:39;;;;;;;2.60;2.40;;;16.40;99.90;;;;;;5006843;28;20553;-72
2023/08/09 05:44:05;;;;;;;2.30;2.10;;;16.40;99.90;;;;;;5021088;28;20438;-72
2023/08/09 05:46:30;;;;;;;2.87;2.67;;;16.40;99.90;;;;;;5024262;28;20462;-70
2023/08/09 05:48:57;;;;;;;2.73;2.27;;;16.40;99.90;;;;;;5004153;28;20544;-71
2023/08/09 05:51:23;;;;;;;2.40;2.20;;;16.40;99.90;;;;;;5006876;28;20798;-72
2023/08/09 05:53:48;;;;;;;2.70;2.10;;;16.40;99.90;;;;;;5039226;28;20502;-73
2023/08/09 05:56:14;;;;;;;2.40;2.20;;;16.40;99.90;;;;;;5024003;28;20256;-71
2023/08/09 05:58:40;;;;;;;2.57;2.30;;;16.40;99.90;;;;;;5037876;28;20233;-71
2023/08/09 06:01:07;;;;;;;2.43;2.23;;;16.40;99.90;;;;;;5021618;28;20216;-72
2023/08/09 06:03:38;;;;;;;4.07;2.30;;;16.40;99.90;;;;;;5023034;28;20225;-71
2023/08/09 06:06:06;;;;;;;2.57;2.37;;;16.40;99.90;;;;;;4989534;28;21066;-70
2023/08/09 06:08:33;;;;;;;2.80;2.60;;;16.40;99.90;;;;;;4997309;28;20498;-71
2023/08/09 06:10:58;;;;;;;3.30;2.47;;;16.50;99.90;;;;;;5003706;28;20479;-72
2023/08/09 06:13:24;;;;;;;6.60;2.90;;;16.50;99.90;;;;;;5021140;28;20529;-71
2023/08/09 06:15:50;;;;;;;4.10;2.97;;;16.50;99.90;;;;;;5004586;28;21537;-73
2023/08/09 06:18:16;;;;;;;2.57;2.37;;;16.50;99.90;;;;;;5005345;28;20226;-72
2023/08/09 06:20:42;;;;;;;3.30;2.63;;;16.60;99.90;;;;;;5021360;28;20239;-72
2023/08/09 06:23:08;;;;;;;2.73;2.53;;;16.60;99.90;;;;;;5004484;28;20475;-73
2023/08/09 06:25:34;;;;;;;3.00;2.20;;;16.60;99.90;;;;;;5004761;28;20502;-72
2023/08/09 06:28:00;;;;;;;2.93;2.60;;;16.60;99.90;;;;;;5004201;28;20505;-73
2023/08/09 06:30:26;;;;;;;4.00;3.30;;;16.70;99.90;;;;;;5022891;28;20223;-72
2023/08/09 06:32:51;;;;;;;3.03;2.73;;;16.70;99.90;;;;;;4993455;28;20875;-72
2023/08/09 06:35:18;;;;;;;2.93;2.73;;;16.70;99.90;;;;;;5023091;28;20232;-73
2023/08/09 06:37:45;;;;;;;3.53;2.80;;;16.70;99.90;;;;;;5004621;28;20228;-72
2023/08/09 06:40:11;;;;;;;2.50;2.30;;;16.80;99.90;;;;;;5003981;28;20485;-71
2023/08/09 06:42:37;;;;;;;2.90;2.70;;;16.80;99.90;;;;;;4988570;28;22133;-70
2023/08/09 06:45:07;;;;;;;3.17;2.80;;;16.80;99.90;;;;;;4988442;28;20267;-72
2023/08/09 06:47:33;;;;;;;2.60;2.40;;;16.90;99.90;;;;;;5004239;28;20979;-71
2023/08/09 06:50:00;;;;;;;2.50;2.30;;;16.90;99.90;;;;;;5002331;28;20477;-71
2023/08/09 06:52:27;;;;;;;3.33;3.03;;;16.90;99.90;;;;;;5003961;28;20222;-71
2023/08/09 06:54:53;;;;;;;4.30;2.77;;;17.00;99.90;;;;;;5022959;28;20463;-71
2023/08/09 06:57:19;;;;;;;3.77;2.40;;;17.00;99.90;;;;;;5003399;28;20484;-70
2023/08/09 06:59:45;;;;;;;3.73;2.83;;;17.00;99.90;;;;;;5021137;28;20682;-70
2023/08/09 07:02:11;;;;;;;3.27;2.57;;;17.10;99.90;;;;;;5036290;28;20727;-71
2023/08/09 07:04:36;;;;;;;8.70;3.13;;;17.10;99.90;;;;;;5004064;28;20474;-71
2023/08/09 07:07:03;;;;;;;2.83;2.57;;;17.10;99.90;;;;;;5036491;28;20894;-71
2023/08/09 07:09:29;;;;;;;3.10;2.67;;;17.10;99.90;;;;;;5004734;28;20300;-72
2023/08/09 07:11:54;;;;;;;3.30;3.00;;;17.10;99.90;;;;;;5017918;28;20458;-72
2023/08/09 07:14:20;;;;;;;2.13;2.00;;;17.10;99.90;;;;;;5003746;28;20760;-71
2023/08/09 07:16:46;;;;;;;3.60;2.70;;;17.10;99.90;;;;;;5020954;28;20219;-71
2023/08/09 07:19:11;;;;;;;2.57;2.37;;;17.20;99.90;;;;;;4992245;28;20306;-72
2023/08/09 07:21:37;;;;;;;2.77;2.50;;;17.20;99.90;;;;;;5004809;28;20227;-72
2023/08/09 07:24:03;;;;;;;6.73;2.50;;;17.20;99.90;;;;;;5004802;28;20224;-72
2023/08/09 07:26:29;;;;;;;2.70;2.40;;;17.20;99.90;;;;;;5000818;28;20216;-71
2023/08/09 07:28:54;;;;;;;2.90;2.43;;;17.20;99.90;;;;;;5017614;28;20917;-71
2023/08/09 07:31:22;;;;;;;2.77;2.40;;;17.20;99.90;;;;;;5001383;28;20347;-71
2023/08/09 07:33:48;;;;;;;3.00;2.10;;;17.20;99.90;;;;;;5018933;28;20329;-72
2023/08/09 07:36:14;;;;;;;2.40;2.20;;;17.20;99.90;;;;;;5002605;28;20935;-70
2023/08/09 07:38:40;;;;;;;3.00;2.70;;;17.20;99.90;;;;;;5036250;28;20505;-72
2023/08/09 07:41:06;;;;;;;2.50;2.30;;;17.30;99.90;;;;;;5002073;28;20223;-72
2023/08/09 07:43:31;;;;;;;3.83;2.80;;;17.30;99.90;;;;;;5020290;28;20232;-71
2023/08/09 07:45:57;;;;;;;2.63;2.37;;;17.30;99.90;;;;;;5002401;28;20227;-72
2023/08/09 07:48:23;;;;;;;2.70;2.30;;;17.30;99.90;;;;;;5001989;28;20337;-72
2023/08/09 07:50:48;;;;;;;2.70;2.50;;;17.40;99.90;;;;;;5002059;28;20839;-71
2023/08/09 07:53:14;;;;;;;2.93;2.73;;;17.40;99.90;;;;;;5000984;28;20699;-71
2023/08/09 07:55:40;;;;;;;2.80;2.60;;;17.40;99.90;;;;;;5002486;28;20247;-71
2023/08/09 07:58:06;;;;;;;2.83;2.63;;;17.40;99.90;;;;;;5017968;28;20220;-71
2023/08/09 08:00:32;;;;;;;2.53;2.33;;;17.50;99.90;;;;;;5032711;28;20228;-72
2023/08/09 08:02:57;;;;;;;2.27;2.17;;;17.50;99.90;;;;;;5019071;28;20227;-72
2023/08/09 08:05:23;;;;;;;3.20;2.27;;;17.50;99.90;;;;;;5035145;28;20239;-71
2023/08/09 08:07:49;;;;;;;3.50;2.60;;;17.40;99.90;;;;;;5020494;28;20224;-72
2023/08/09 08:10:14;;;;;;;2.07;1.97;;;17.40;99.90;;;;;;4998391;28;20235;-72
2023/08/09 08:12:42;;;;;;;4.03;2.10;;;17.50;99.90;;;;;;5016848;28;20287;-72
2023/08/09 08:15:08;;;;;;;2.23;2.00;;;17.40;99.90;;;;;;4999548;28;20863;-71
2023/08/09 08:17:34;;;;;;;2.63;2.17;;;17.40;99.90;;;;;;5036010;28;21185;-71
2023/08/09 08:20:00;;;;;;;2.40;2.20;;;17.40;99.90;;;;;;5017946;28;20475;-72
2023/08/09 08:22:26;;;;;;;2.50;2.30;;;17.40;99.90;;;;;;5014267;28;20263;-71
2023/08/09 08:24:52;;;;;;;3.07;2.77;;;17.40;99.90;;;;;;5000189;28;20688;-72
2023/08/09 08:27:17;;;;;;;2.17;1.97;;;17.40;99.90;;;;;;5002060;28;20462;-71
2023/08/09 08:29:43;;;;;;;2.20;2.00;;;17.50;99.90;;;;;;5035576;28;20229;-72
2023/08/09 08:32:12;;;;;;;3.00;2.00;;;17.50;99.90;;;;;;5028796;28;21198;-72
2023/08/09 08:34:37;;;;;;;2.20;2.00;;;17.50;99.90;;;;;;5003463;28;20726;-71
2023/08/09 08:37:04;;;;;;;2.20;2.10;;;17.50;99.90;;;;;;5033231;28;20473;-72
2023/08/09 08:39:32;;;;;;;2.23;1.80;;;17.50;99.90;;;;;;5019424;28;20224;-72
2023/08/09 08:41:59;;;;;;;2.27;2.07;;;17.60;99.90;;;;;;5003398;28;20473;-71
2023/08/09 08:44:25;;;;;;;1.60;1.50;;;17.60;99.90;;;;;;5039345;28;20557;-72
2023/08/09 08:46:51;;;;;;;1.87;1.77;;;17.60;99.90;;;;;;5023416;28;20228;-72
2023/08/09 08:49:26;;;;;;;2.20;2.00;;;17.60;99.90;;;;;;5006292;28;20474;-70
2023/08/09 08:51:55;;;;;;;1.80;1.70;;;17.70;99.90;;;;;;5022158;28;20465;-71
2023/08/09 08:54:23;;;;;;;1.57;1.47;;;17.70;99.90;;;;;;5007161;28;21217;-71
2023/08/09 08:56:48;;;;;;;1.40;1.30;;;17.80;99.90;;;;;;5002958;28;20455;-72
2023/08/09 08:59:15;;;;;;;1.53;1.43;;;17.80;99.90;;;;;;5019585;28;20841;-72
2023/08/09 09:01:42;;;;;;;1.23;1.23;;;17.90;99.90;;;;;;5003832;28;20225;-72
2023/08/09 09:04:08;;;;;;;1.83;1.20;;;17.90;99.90;;;;;;5037146;28;20516;-73
2023/08/09 09:06:34;;;;;;;1.37;1.30;;;18.00;99.90;;;;;;5019086;28;20470;-73
2023/08/09 09:09:00;;;;;;;1.30;1.20;;;18.00;99.90;;;;;;5021309;28;20684;-73
2023/08/09 09:11:26;;;;;;;1.27;1.17;;;18.10;99.90;;;;;;5004627;28;20497;-72
2023/08/09 09:13:52;;;;;;;1.40;1.30;;;18.10;99.90;;;;;;5003515;28;20469;-73
2023/08/09 09:16:19;;;;;;;1.10;1.00;;;18.10;99.90;;;;;;5018868;28;20224;-72
2023/08/09 09:18:47;;;;;;;1.17;1.07;;;18.20;99.90;;;;;;5036451;28;20533;-72
2023/08/09 09:21:14;;;;;;;0.80;0.80;;;18.20;99.90;;;;;;5002283;28;21071;-72
2023/08/09 09:23:40;;;;;;;1.57;1.47;;;18.20;99.90;;;;;;5038322;28;21852;-73
2023/08/09 09:26:11;;;;;;;0.90;0.90;;;18.30;99.90;;;;;;5004709;28;20470;-73
2023/08/09 09:28:44;;;;;;;0.90;0.90;;;18.40;99.90;;;;;;5007217;28;20223;-72
2023/08/09 09:31:17;;;;;;;1.10;1.00;;;18.30;99.90;;;;;;5020087;28;20475;-72
2023/08/09 09:33:51;;;;;;;3.40;1.10;;;18.40;99.90;;;;;;5004554;28;20517;-73
2023/08/09 09:36:17;;;;;;;1.13;1.03;;;18.40;99.90;;;;;;5035097;28;20468;-73
2023/08/09 09:38:44;;;;;;;1.53;1.10;;;18.40;99.90;;;;;;5024892;28;20508;-71
2023/08/09 09:41:11;;;;;;;1.10;1.00;;;18.50;99.90;;;;;;5021327;28;20612;-72
2023/08/09 09:43:39;;;;;;;1.30;1.20;;;18.60;99.90;;;;;;5020075;28;21192;-72
2023/08/09 09:46:23;;;;;;;0.73;0.73;;;18.60;99.90;;;;;;5020341;28;20468;-73
2023/08/09 09:48:59;;;;;;;0.90;0.90;;;18.60;99.90;;;;;;5022439;28;20533;-73
2023/08/09 09:51:25;;;;;;;1.00;0.70;;;18.60;99.90;;;;;;5026193;28;20465;-72
2023/08/09 09:53:51;;;;;;;0.90;0.90;;;18.60;99.90;;;;;;5023012;28;20504;-71
2023/08/09 09:56:17;;;;;;;1.57;1.00;;;18.70;99.90;;;;;;5023290;28;20340;-72
2023/08/09 09:58:42;;;;;;;0.93;0.93;;;18.80;99.90;;;;;;5043755;28;20469;-72
2023/08/09 10:01:20;;;;;;;0.70;0.70;;;18.80;99.90;;;;;;5023855;28;20767;-71
2023/08/09 10:03:48;;;;;;;0.80;0.80;;;19.00;99.90;;;;;;5025040;28;20219;-71
2023/08/09 10:06:28;;;;;;;0.90;0.80;;;19.10;99.90;;;;;;5023336;28;20559;-71
2023/08/09 10:08:56;;;;;;;1.80;1.00;;;19.10;99.90;;;;;;5039598;28;20463;-70
2023/08/09 10:11:23;;;;;;;0.73;0.73;;;19.10;99.90;;;;;;5021032;28;21096;-72
2023/08/09 10:13:51;;;;;;;0.70;0.63;;;19.10;99.90;;;;;;5006710;28;20463;-72
2023/08/09 10:16:19;;;;;;;0.73;0.70;;;19.10;99.90;;;;;;5022449;28;20482;-71
2023/08/09 10:18:48;;;;;;;0.60;0.53;;;19.20;99.90;;;;;;5019832;28;20574;-73
2023/08/09 10:21:16;;;;;;;0.60;0.60;;;19.20;99.90;;;;;;5001424;28;20548;-72
2023/08/09 10:24:06;;;;;;;0.60;0.60;;;19.30;99.90;;;;;;5019291;28;20467;-72
2023/08/09 10:26:33;;;;;;;0.53;0.53;;;19.30;99.90;;;;;;5006704;28;20475;-72
2023/08/09 10:29:11;;;;;;;0.80;0.60;;;19.30;99.90;;;;;;5001249;28;21151;-72
2023/08/09 10:31:53;;;;;;;0.60;0.60;;;19.40;99.90;;;;;;5002338;28;20467;-71
2023/08/09 10:34:41;;;;;;;0.60;0.50;;;19.50;99.90;;;;;;5005431;28;20470;-73
2023/08/09 10:37:09;;;;;;;0.50;0.50;;;19.40;99.90;;;;;;5014547;28;20466;-72
2023/08/09 10:39:36;;;;;;;0.47;0.47;;;19.40;99.90;;;;;;5018358;28;21906;-71
2023/08/09 10:42:11;;;;;;;0.60;0.60;;;19.40;99.90;;;;;;5035845;28;20478;-72
2023/08/09 10:44:41;;;;;;;0.50;0.50;;;19.40;99.90;;;;;;5019756;28;20494;-71
2023/08/09 10:47:18;;;;;;;0.70;0.50;;;19.60;99.90;;;;;;5019685;28;20462;-71
2023/08/09 10:49:44;;;;;;;0.50;0.50;;;19.60;99.90;;;;;;5035556;28;20490;-72
2023/08/09 10:52:15;;;;;;;0.60;0.60;;;19.60;99.90;;;;;;5017766;28;20457;-72
2023/08/09 10:54:41;;;;;;;1.07;0.63;;;19.70;99.90;;;;;;5018175;28;20239;-72
2023/08/09 10:57:09;;;;;;;0.93;0.80;;;19.70;99.90;;;;;;5023888;28;20459;-72
2023/08/09 10:59:38;;;;;;;0.70;0.70;;;19.80;99.90;;;;;;5040972;28;20227;-71
2023/08/09 11:02:04;;;;;;;0.60;0.60;;;19.70;99.90;;;;;;5019455;28;20473;-71
2023/08/09 11:04:30;;;;;;;0.60;0.60;;;19.80;99.90;;;;;;5019911;28;21145;-72
2023/08/09 11:06:56;;;;;;;0.60;0.60;;;19.90;99.90;;;;;;5017483;28;20551;-72
2023/08/09 11:09:23;;;;;;;0.50;0.50;;;19.80;99.90;;;;;;5036714;28;20234;-72
2023/08/09 11:11:50;;;;;;;1.27;0.67;;;19.90;99.90;;;;;;5019299;28;20310;-72
2023/08/09 11:14:21;;;;;;;0.80;0.80;;;19.90;99.90;;;;;;5036974;28;21934;-72
2023/08/09 11:16:47;;;;;;;0.70;0.70;;;20.00;99.90;;;;;;5018966;28;20496;-72
2023/08/09 11:19:15;;;;;;;2.10;0.90;;;20.20;99.90;;;;;;5017504;28;20457;-73
2023/08/09 11:21:41;;;;;;;0.70;0.70;;;20.30;99.90;;;;;;5019557;28;20465;-72
2023/08/09 11:24:11;;;;;;;0.80;0.80;;;20.20;99.90;;;;;;5035417;28;20929;-72
2023/08/09 11:26:45;;;;;;;0.90;0.90;;;20.20;99.90;;;;;;5036058;28;20455;-72
2023/08/09 11:29:11;;;;;;;0.60;0.57;;;20.40;99.90;;;;;;5018389;28;20454;-71
2023/08/09 11:31:43;;;;;;;0.70;0.70;;;20.40;99.90;;;;;;5037975;28;20727;-72
2023/08/09 11:34:11;;;;;;;0.70;0.70;;;20.40;99.90;;;;;;5018527;28;20215;-72
2023/08/09 11:36:36;;;;;;;0.70;0.70;;;20.50;99.90;;;;;;5019529;28;20531;-73
2023/08/09 11:39:04;;;;;;;0.83;0.83;;;20.60;99.90;;;;;;5034947;28;20462;-73
2023/08/09 11:41:43;;;;;;;0.80;0.80;;;20.50;99.90;;;;;;5019342;28;20235;-72
2023/08/09 11:44:12;;;;;;;0.70;0.70;;;20.60;99.90;;;;;;5010474;28;20459;-72
2023/08/09 11:46:40;;;;;;;1.17;1.10;;;20.50;99.90;;;;;;4999799;28;20579;-73
2023/08/09 11:49:07;;;;;;;3.03;0.90;;;20.60;99.90;;;;;;5015191;28;20458;-73
2023/08/09 11:51:35;;;;;;;0.90;0.90;;;20.60;99.90;;;;;;4998250;28;20466;-72
2023/08/09 11:54:01;;;;;;;0.93;0.93;;;20.80;99.90;;;;;;5016812;28;21565;-72
2023/08/09 11:56:31;;;;;;;0.80;0.80;;;21.00;99.90;;;;;;5016250;28;20667;-72
2023/08/09 11:59:01;;;;;;;0.83;0.83;;;21.00;99.90;;;;;;5015476;28;20494;-72
2023/08/09 12:01:35;;;;;;;0.70;0.70;;;21.20;99.90;;;;;;5030272;28;20590;-72
2023/08/09 12:04:08;;;;;;;0.77;0.77;;;21.30;99.90;;;;;;5034027;28;20884;-72
2023/08/09 12:06:42;;;;;;;0.80;0.80;;;21.20;99.90;;;;;;5017208;28;20571;-72
2023/08/09 12:09:36;;;;;;;1.20;1.20;;;21.20;99.90;;;;;;5014514;28;20450;-72
2023/08/09 12:12:08;;;;;;;0.80;0.80;;;21.20;99.90;;;;;;5014117;28;20510;-72
2023/08/09 12:14:39;;;;;;;1.10;1.00;;;21.60;99.90;;;;;;4995712;28;22130;-73
2023/08/09 12:17:05;;;;;;;1.00;1.00;;;21.70;99.90;;;;;;4999204;28;20570;-71
2023/08/09 12:19:32;;;;;;;1.00;0.90;;;21.60;99.90;;;;;;5005238;28;21252;-73
2023/08/09 12:21:59;;;;;;;1.20;1.10;;;21.70;99.90;;;;;;5000653;28;21348;-72
2023/08/09 12:24:25;;;;;;;1.40;1.00;;;21.70;99.90;;;;;;5020989;28;20474;-71
2023/08/09 12:26:51;;;;;;;0.83;0.83;;;21.90;99.90;;;;;;5003935;28;20474;-73
2023/08/09 12:29:17;;;;;;;0.90;0.90;;;22.10;99.90;;;;;;5001730;28;21279;-73
2023/08/09 12:31:43;;;;;;;1.10;1.10;;;22.20;99.90;;;;;;5020040;28;20221;-72
2023/08/09 12:34:11;;;;;;;1.70;1.00;;;22.10;99.90;;;;;;5019663;28;20271;-72
2023/08/09 12:36:37;;;;;;;1.03;0.93;;;21.80;99.90;;;;;;5001400;28;20450;-72
2023/08/09 12:39:03;;;;;;;0.93;0.90;;;21.70;99.90;;;;;;5002351;28;20507;-72
2023/08/09 12:41:29;;;;;;;1.10;1.10;;;21.50;99.90;;;;;;5017192;28;20461;-72
2023/08/09 12:43:55;;;;;;;1.27;1.20;;;21.60;99.90;;;;;;5036490;28;20463;-72
2023/08/09 12:46:21;;;;;;;1.10;1.00;;;22.00;99.90;;;;;;5003254;28;20231;-72
2023/08/09 12:48:46;;;;;;;1.10;1.03;;;21.80;99.90;;;;;;5019791;28;21813;-72